sensor_id;sensor_type;location;lat;lon;timestamp;P1;durP1;ratioP1;P2;durP2;ratioP2
68870;SDS011;55906;52.278;6.808;2023-06-04T00:00:30;5.63;;;3.33;;
68870;SDS011;55906;52.278;6.808;2023-06-04T00:02:56;4.20;;;3.27;;
68870;SDS011;55906;52.278;6.808;2023-06-04T00:05:23;5.63;;;3.75;;
68870;SDS011;55906;52.278;6.808;2023-06-04T00:07:50;3.72;;;2.78;;
68870;SDS011;55906;52.278;6.808;2023-06-04T00:10:17;5.05;;;3.50;;
68870;SDS011;55906;52.278;6.808;2023-06-04T00:12:44;5.22;;;3.03;;
68870;SDS011;55906;52.278;6.808;2023-06-04T00:15:10;3.93;;;3.13;;
68870;SDS011;55906;52.278;6.808;2023-06-04T00:17:38;4.07;;;2.63;;
68870;SDS011;55906;52.278;6.808;2023-06-04T00:20:05;4.90;;;3.33;;
68870;SDS011;55906;52.278;6.808;2023-06-04T00:22:33;4.63;;;3.13;;
68870;SDS011;55906;52.278;6.808;2023-06-04T00:24:59;3.95;;;2.75;;
68870;SDS011;55906;52.278;6.808;2023-06-04T00:27:26;4.03;;;3.00;;
68870;SDS011;55906;52.278;6.808;2023-06-04T00:29:52;4.18;;;3.20;;
68870;SDS011;55906;52.278;6.808;2023-06-04T00:32:19;4.15;;;3.20;;
68870;SDS011;55906;52.278;6.808;2023-06-04T00:34:51;4.70;;;3.28;;
68870;SDS011;55906;52.278;6.808;2023-06-04T00:37:18;5.20;;;3.50;;
68870;SDS011;55906;52.278;6.808;2023-06-04T00:39:45;4.30;;;3.80;;
68870;SDS011;55906;52.278;6.808;2023-06-04T00:42:11;4.28;;;3.42;;
68870;SDS011;55906;52.278;6.808;2023-06-04T00:44:38;5.57;;;3.25;;
68870;SDS011;55906;52.278;6.808;2023-06-04T00:47:08;4.50;;;3.63;;
68870;SDS011;55906;52.278;6.808;2023-06-04T00:49:35;4.70;;;3.15;;
68870;SDS011;55906;52.278;6.808;2023-06-04T00:52:03;3.87;;;2.87;;
68870;SDS011;55906;52.278;6.808;2023-06-04T00:54:31;4.15;;;3.55;;
68870;SDS011;55906;52.278;6.808;2023-06-04T00:56:59;3.80;;;3.00;;
68870;SDS011;55906;52.278;6.808;2023-06-04T00:59:25;4.22;;;3.28;;
68870;SDS011;55906;52.278;6.808;2023-06-04T01:01:54;4.45;;;3.25;;
68870;SDS011;55906;52.278;6.808;2023-06-04T01:04:25;4.10;;;3.30;;
68870;SDS011;55906;52.278;6.808;2023-06-04T01:06:57;4.68;;;3.00;;
68870;SDS011;55906;52.278;6.808;2023-06-04T01:09:30;4.35;;;3.20;;
68870;SDS011;55906;52.278;6.808;2023-06-04T01:11:57;4.32;;;3.80;;
68870;SDS011;55906;52.278;6.808;2023-06-04T01:14:24;4.45;;;3.20;;
68870;SDS011;55906;52.278;6.808;2023-06-04T01:16:53;5.87;;;3.50;;
68870;SDS011;55906;52.278;6.808;2023-06-04T01:19:32;5.18;;;3.30;;
68870;SDS011;55906;52.278;6.808;2023-06-04T01:22:22;5.10;;;3.65;;
68870;SDS011;55906;52.278;6.808;2023-06-04T01:25:02;4.20;;;3.63;;
68870;SDS011;55906;52.278;6.808;2023-06-04T01:27:30;4.35;;;3.20;;
68870;SDS011;55906;52.278;6.808;2023-06-04T01:29:57;6.17;;;3.37;;
68870;SDS011;55906;52.278;6.808;2023-06-04T01:32:25;6.15;;;3.88;;
68870;SDS011;55906;52.278;6.808;2023-06-04T01:34:53;5.00;;;3.38;;
68870;SDS011;55906;52.278;6.808;2023-06-04T01:37:20;4.75;;;3.30;;
68870;SDS011;55906;52.278;6.808;2023-06-04T01:39:47;4.38;;;3.33;;
68870;SDS011;55906;52.278;6.808;2023-06-04T01:42:15;3.77;;;3.10;;
68870;SDS011;55906;52.278;6.808;2023-06-04T01:44:41;5.80;;;3.42;;
68870;SDS011;55906;52.278;6.808;2023-06-04T01:47:08;4.28;;;3.28;;
68870;SDS011;55906;52.278;6.808;2023-06-04T01:49:35;4.88;;;3.47;;
68870;SDS011;55906;52.278;6.808;2023-06-04T01:52:03;4.78;;;3.95;;
68870;SDS011;55906;52.278;6.808;2023-06-04T01:54:30;4.67;;;3.57;;
68870;SDS011;55906;52.278;6.808;2023-06-04T01:56:58;3.97;;;3.13;;
68870;SDS011;55906;52.278;6.808;2023-06-04T01:59:27;5.30;;;3.55;;
68870;SDS011;55906;52.278;6.808;2023-06-04T02:01:53;4.32;;;3.13;;
68870;SDS011;55906;52.278;6.808;2023-06-04T02:04:20;4.80;;;3.50;;
68870;SDS011;55906;52.278;6.808;2023-06-04T02:06:48;4.60;;;3.47;;
68870;SDS011;55906;52.278;6.808;2023-06-04T02:09:14;5.55;;;4.10;;
68870;SDS011;55906;52.278;6.808;2023-06-04T02:11:41;5.70;;;3.78;;
68870;SDS011;55906;52.278;6.808;2023-06-04T02:14:08;3.95;;;2.97;;
68870;SDS011;55906;52.278;6.808;2023-06-04T02:16:36;7.03;;;3.67;;
68870;SDS011;55906;52.278;6.808;2023-06-04T02:19:04;5.20;;;3.70;;
68870;SDS011;55906;52.278;6.808;2023-06-04T02:21:30;4.30;;;3.50;;
68870;SDS011;55906;52.278;6.808;2023-06-04T02:23:57;4.70;;;3.28;;
68870;SDS011;55906;52.278;6.808;2023-06-04T02:26:24;4.95;;;3.60;;
68870;SDS011;55906;52.278;6.808;2023-06-04T02:28:50;5.90;;;4.28;;
68870;SDS011;55906;52.278;6.808;2023-06-04T02:31:17;4.83;;;3.47;;
68870;SDS011;55906;52.278;6.808;2023-06-04T02:33:45;5.35;;;3.63;;
68870;SDS011;55906;52.278;6.808;2023-06-04T02:36:11;4.57;;;3.28;;
68870;SDS011;55906;52.278;6.808;2023-06-04T02:38:38;5.80;;;4.13;;
68870;SDS011;55906;52.278;6.808;2023-06-04T02:41:05;5.30;;;4.25;;
68870;SDS011;55906;52.278;6.808;2023-06-04T02:43:31;5.37;;;3.57;;
68870;SDS011;55906;52.278;6.808;2023-06-04T02:45:58;6.50;;;4.13;;
68870;SDS011;55906;52.278;6.808;2023-06-04T02:48:25;7.60;;;4.28;;
68870;SDS011;55906;52.278;6.808;2023-06-04T02:50:53;4.97;;;3.75;;
68870;SDS011;55906;52.278;6.808;2023-06-04T02:53:20;5.32;;;4.00;;
68870;SDS011;55906;52.278;6.808;2023-06-04T02:55:46;5.20;;;3.77;;
68870;SDS011;55906;52.278;6.808;2023-06-04T02:58:13;6.68;;;3.80;;
68870;SDS011;55906;52.278;6.808;2023-06-04T03:00:41;6.78;;;4.13;;
68870;SDS011;55906;52.278;6.808;2023-06-04T03:03:07;5.85;;;3.20;;
68870;SDS011;55906;52.278;6.808;2023-06-04T03:05:34;4.38;;;3.17;;
68870;SDS011;55906;52.278;6.808;2023-06-04T03:08:03;5.40;;;4.50;;
68870;SDS011;55906;52.278;6.808;2023-06-04T03:10:30;6.07;;;4.25;;
68870;SDS011;55906;52.278;6.808;2023-06-04T03:12:57;4.88;;;3.70;;
68870;SDS011;55906;52.278;6.808;2023-06-04T03:15:24;6.75;;;4.28;;
68870;SDS011;55906;52.278;6.808;2023-06-04T03:17:50;5.18;;;4.13;;
68870;SDS011;55906;52.278;6.808;2023-06-04T03:20:17;4.83;;;4.33;;
68870;SDS011;55906;52.278;6.808;2023-06-04T03:22:44;6.20;;;3.78;;
68870;SDS011;55906;52.278;6.808;2023-06-04T03:25:12;6.18;;;3.92;;
68870;SDS011;55906;52.278;6.808;2023-06-04T03:27:39;5.32;;;4.03;;
68870;SDS011;55906;52.278;6.808;2023-06-04T03:30:06;5.93;;;4.85;;
68870;SDS011;55906;52.278;6.808;2023-06-04T03:32:34;7.13;;;4.67;;
68870;SDS011;55906;52.278;6.808;2023-06-04T03:35:01;5.63;;;3.35;;
68870;SDS011;55906;52.278;6.808;2023-06-04T03:37:28;5.47;;;4.25;;
68870;SDS011;55906;52.278;6.808;2023-06-04T03:39:55;5.25;;;3.83;;
68870;SDS011;55906;52.278;6.808;2023-06-04T03:42:23;5.07;;;3.53;;
68870;SDS011;55906;52.278;6.808;2023-06-04T03:44:49;5.70;;;4.43;;
68870;SDS011;55906;52.278;6.808;2023-06-04T03:47:16;5.40;;;3.88;;
68870;SDS011;55906;52.278;6.808;2023-06-04T03:49:43;5.90;;;4.05;;
68870;SDS011;55906;52.278;6.808;2023-06-04T03:52:09;5.60;;;4.13;;
68870;SDS011;55906;52.278;6.808;2023-06-04T03:54:36;5.65;;;3.83;;
68870;SDS011;55906;52.278;6.808;2023-06-04T03:57:03;5.40;;;4.57;;
68870;SDS011;55906;52.278;6.808;2023-06-04T03:59:31;5.35;;;3.28;;
68870;SDS011;55906;52.278;6.808;2023-06-04T04:01:57;7.13;;;3.67;;
68870;SDS011;55906;52.278;6.808;2023-06-04T04:04:24;4.82;;;3.58;;
68870;SDS011;55906;52.278;6.808;2023-06-04T04:06:51;5.80;;;3.97;;
68870;SDS011;55906;52.278;6.808;2023-06-04T04:09:17;6.53;;;4.37;;
68870;SDS011;55906;52.278;6.808;2023-06-04T04:11:44;8.20;;;5.75;;
68870;SDS011;55906;52.278;6.808;2023-06-04T04:14:10;6.00;;;4.07;;
68870;SDS011;55906;52.278;6.808;2023-06-04T04:16:38;8.95;;;4.70;;
68870;SDS011;55906;52.278;6.808;2023-06-04T04:19:05;8.80;;;4.68;;
68870;SDS011;55906;52.278;6.808;2023-06-04T04:21:33;6.60;;;4.67;;
68870;SDS011;55906;52.278;6.808;2023-06-04T04:24:01;5.90;;;4.13;;
68870;SDS011;55906;52.278;6.808;2023-06-04T04:26:28;6.97;;;4.57;;
68870;SDS011;55906;52.278;6.808;2023-06-04T04:28:55;8.48;;;4.80;;
68870;SDS011;55906;52.278;6.808;2023-06-04T04:31:23;9.93;;;5.78;;
68870;SDS011;55906;52.278;6.808;2023-06-04T04:33:51;6.53;;;5.00;;
68870;SDS011;55906;52.278;6.808;2023-06-04T04:36:19;6.82;;;4.57;;
68870;SDS011;55906;52.278;6.808;2023-06-04T04:38:45;6.78;;;4.40;;
68870;SDS011;55906;52.278;6.808;2023-06-04T04:41:19;6.53;;;4.95;;
68870;SDS011;55906;52.278;6.808;2023-06-04T04:43:46;7.70;;;4.80;;
68870;SDS011;55906;52.278;6.808;2023-06-04T04:46:12;5.33;;;4.27;;
68870;SDS011;55906;52.278;6.808;2023-06-04T04:48:39;6.32;;;4.10;;
68870;SDS011;55906;52.278;6.808;2023-06-04T04:51:08;9.65;;;7.10;;
68870;SDS011;55906;52.278;6.808;2023-06-04T04:53:35;9.45;;;5.32;;
68870;SDS011;55906;52.278;6.808;2023-06-04T04:56:02;5.80;;;4.55;;
68870;SDS011;55906;52.278;6.808;2023-06-04T04:58:28;9.20;;;6.30;;
68870;SDS011;55906;52.278;6.808;2023-06-04T05:00:55;5.70;;;3.97;;
68870;SDS011;55906;52.278;6.808;2023-06-04T05:03:22;7.38;;;5.05;;
68870;SDS011;55906;52.278;6.808;2023-06-04T05:05:48;6.28;;;5.03;;
68870;SDS011;55906;52.278;6.808;2023-06-04T05:08:16;6.15;;;4.55;;
68870;SDS011;55906;52.278;6.808;2023-06-04T05:10:43;8.23;;;4.50;;
68870;SDS011;55906;52.278;6.808;2023-06-04T05:13:09;6.28;;;4.60;;
68870;SDS011;55906;52.278;6.808;2023-06-04T05:15:36;5.88;;;4.82;;
68870;SDS011;55906;52.278;6.808;2023-06-04T05:18:04;6.15;;;5.07;;
68870;SDS011;55906;52.278;6.808;2023-06-04T05:20:31;6.00;;;4.63;;
68870;SDS011;55906;52.278;6.808;2023-06-04T05:23:00;7.10;;;4.40;;
68870;SDS011;55906;52.278;6.808;2023-06-04T05:25:28;8.40;;;4.68;;
68870;SDS011;55906;52.278;6.808;2023-06-04T05:27:56;6.07;;;4.05;;
68870;SDS011;55906;52.278;6.808;2023-06-04T05:30:22;7.45;;;5.03;;
68870;SDS011;55906;52.278;6.808;2023-06-04T05:32:49;5.80;;;4.53;;
68870;SDS011;55906;52.278;6.808;2023-06-04T05:35:18;8.43;;;5.60;;
68870;SDS011;55906;52.278;6.808;2023-06-04T05:37:45;8.05;;;4.75;;
68870;SDS011;55906;52.278;6.808;2023-06-04T05:40:18;7.07;;;4.40;;
68870;SDS011;55906;52.278;6.808;2023-06-04T05:42:47;6.55;;;4.50;;
68870;SDS011;55906;52.278;6.808;2023-06-04T05:45:14;7.35;;;5.47;;
68870;SDS011;55906;52.278;6.808;2023-06-04T05:47:41;6.43;;;4.30;;
68870;SDS011;55906;52.278;6.808;2023-06-04T05:50:08;9.68;;;5.22;;
68870;SDS011;55906;52.278;6.808;2023-06-04T05:52:35;7.55;;;4.90;;
68870;SDS011;55906;52.278;6.808;2023-06-04T05:55:03;6.80;;;4.22;;
68870;SDS011;55906;52.278;6.808;2023-06-04T05:57:32;7.43;;;5.18;;
68870;SDS011;55906;52.278;6.808;2023-06-04T06:00:00;7.07;;;4.80;;
68870;SDS011;55906;52.278;6.808;2023-06-04T06:02:27;6.60;;;4.35;;
68870;SDS011;55906;52.278;6.808;2023-06-04T06:04:53;6.88;;;4.63;;
68870;SDS011;55906;52.278;6.808;2023-06-04T06:07:21;7.75;;;4.68;;
68870;SDS011;55906;52.278;6.808;2023-06-04T06:09:48;6.35;;;4.57;;
68870;SDS011;55906;52.278;6.808;2023-06-04T06:12:14;8.00;;;5.53;;
68870;SDS011;55906;52.278;6.808;2023-06-04T06:14:41;6.53;;;3.80;;
68870;SDS011;55906;52.278;6.808;2023-06-04T06:17:09;6.38;;;4.20;;
68870;SDS011;55906;52.278;6.808;2023-06-04T06:19:36;5.75;;;4.13;;
68870;SDS011;55906;52.278;6.808;2023-06-04T06:22:03;6.30;;;3.78;;
68870;SDS011;55906;52.278;6.808;2023-06-04T06:24:30;8.20;;;4.37;;
68870;SDS011;55906;52.278;6.808;2023-06-04T06:26:57;7.13;;;4.55;;
68870;SDS011;55906;52.278;6.808;2023-06-04T06:29:23;8.20;;;4.60;;
68870;SDS011;55906;52.278;6.808;2023-06-04T06:31:50;7.30;;;4.80;;
68870;SDS011;55906;52.278;6.808;2023-06-04T06:34:18;8.93;;;4.93;;
68870;SDS011;55906;52.278;6.808;2023-06-04T06:36:45;5.67;;;3.90;;
68870;SDS011;55906;52.278;6.808;2023-06-04T06:39:12;6.78;;;4.25;;
68870;SDS011;55906;52.278;6.808;2023-06-04T06:41:39;6.97;;;4.07;;
68870;SDS011;55906;52.278;6.808;2023-06-04T06:44:06;5.57;;;4.00;;
68870;SDS011;55906;52.278;6.808;2023-06-04T06:46:32;5.68;;;3.97;;
68870;SDS011;55906;52.278;6.808;2023-06-04T06:48:59;7.37;;;4.03;;
68870;SDS011;55906;52.278;6.808;2023-06-04T06:51:27;8.15;;;4.68;;
68870;SDS011;55906;52.278;6.808;2023-06-04T06:53:54;5.90;;;3.90;;
68870;SDS011;55906;52.278;6.808;2023-06-04T06:56:20;5.03;;;4.30;;
68870;SDS011;55906;52.278;6.808;2023-06-04T06:58:47;6.75;;;4.50;;
68870;SDS011;55906;52.278;6.808;2023-06-04T07:01:14;7.33;;;4.13;;
68870;SDS011;55906;52.278;6.808;2023-06-04T07:03:41;6.68;;;3.92;;
68870;SDS011;55906;52.278;6.808;2023-06-04T07:06:08;5.13;;;3.75;;
68870;SDS011;55906;52.278;6.808;2023-06-04T07:08:36;8.73;;;5.10;;
68870;SDS011;55906;52.278;6.808;2023-06-04T07:11:03;6.22;;;3.85;;
68870;SDS011;55906;52.278;6.808;2023-06-04T07:13:29;6.27;;;3.60;;
68870;SDS011;55906;52.278;6.808;2023-06-04T07:15:57;6.50;;;4.10;;
68870;SDS011;55906;52.278;6.808;2023-06-04T07:18:24;8.93;;;4.50;;
68870;SDS011;55906;52.278;6.808;2023-06-04T07:20:50;6.80;;;4.10;;
68870;SDS011;55906;52.278;6.808;2023-06-04T07:23:17;6.90;;;4.10;;
68870;SDS011;55906;52.278;6.808;2023-06-04T07:25:45;7.73;;;4.57;;
68870;SDS011;55906;52.278;6.808;2023-06-04T07:28:12;8.23;;;4.78;;
68870;SDS011;55906;52.278;6.808;2023-06-04T07:30:39;6.88;;;3.85;;
68870;SDS011;55906;52.278;6.808;2023-06-04T07:33:06;5.28;;;3.65;;
68870;SDS011;55906;52.278;6.808;2023-06-04T07:35:32;6.32;;;4.50;;
68870;SDS011;55906;52.278;6.808;2023-06-04T07:37:59;5.13;;;3.70;;
68870;SDS011;55906;52.278;6.808;2023-06-04T07:40:25;7.00;;;4.00;;
68870;SDS011;55906;52.278;6.808;2023-06-04T07:42:53;5.78;;;3.53;;
68870;SDS011;55906;52.278;6.808;2023-06-04T07:45:20;6.70;;;3.92;;
68870;SDS011;55906;52.278;6.808;2023-06-04T07:47:47;5.20;;;3.20;;
68870;SDS011;55906;52.278;6.808;2023-06-04T07:50:13;5.30;;;3.50;;
68870;SDS011;55906;52.278;6.808;2023-06-04T07:52:40;6.38;;;3.22;;
68870;SDS011;55906;52.278;6.808;2023-06-04T07:55:08;6.88;;;3.97;;
68870;SDS011;55906;52.278;6.808;2023-06-04T07:57:35;6.25;;;3.58;;
68870;SDS011;55906;52.278;6.808;2023-06-04T08:00:04;5.85;;;3.33;;
68870;SDS011;55906;52.278;6.808;2023-06-04T08:02:33;7.53;;;4.60;;
68870;SDS011;55906;52.278;6.808;2023-06-04T08:05:00;6.43;;;3.50;;
68870;SDS011;55906;52.278;6.808;2023-06-04T08:07:27;6.68;;;3.70;;
68870;SDS011;55906;52.278;6.808;2023-06-04T08:09:54;4.50;;;2.97;;
68870;SDS011;55906;52.278;6.808;2023-06-04T08:12:21;11.88;;;3.67;;
68870;SDS011;55906;52.278;6.808;2023-06-04T08:14:48;9.90;;;3.90;;
68870;SDS011;55906;52.278;6.808;2023-06-04T08:17:16;4.88;;;3.08;;
68870;SDS011;55906;52.278;6.808;2023-06-04T08:19:43;5.88;;;3.15;;
68870;SDS011;55906;52.278;6.808;2023-06-04T08:22:10;5.07;;;3.10;;
68870;SDS011;55906;52.278;6.808;2023-06-04T08:24:37;5.60;;;2.95;;
68870;SDS011;55906;52.278;6.808;2023-06-04T08:27:03;6.03;;;2.93;;
68870;SDS011;55906;52.278;6.808;2023-06-04T08:29:32;5.05;;;3.17;;
68870;SDS011;55906;52.278;6.808;2023-06-04T08:31:59;6.22;;;3.22;;
68870;SDS011;55906;52.278;6.808;2023-06-04T08:34:27;4.68;;;2.70;;
68870;SDS011;55906;52.278;6.808;2023-06-04T08:36:53;5.55;;;2.92;;
68870;SDS011;55906;52.278;6.808;2023-06-04T08:39:20;4.97;;;3.47;;
68870;SDS011;55906;52.278;6.808;2023-06-04T08:41:48;4.45;;;2.58;;
68870;SDS011;55906;52.278;6.808;2023-06-04T08:44:17;4.13;;;2.75;;
68870;SDS011;55906;52.278;6.808;2023-06-04T08:46:44;7.20;;;2.78;;
68870;SDS011;55906;52.278;6.808;2023-06-04T08:49:11;5.53;;;2.75;;
68870;SDS011;55906;52.278;6.808;2023-06-04T08:51:40;5.43;;;2.77;;
68870;SDS011;55906;52.278;6.808;2023-06-04T08:54:08;4.93;;;2.70;;
68870;SDS011;55906;52.278;6.808;2023-06-04T08:56:35;5.07;;;2.53;;
68870;SDS011;55906;52.278;6.808;2023-06-04T08:59:03;5.72;;;2.95;;
68870;SDS011;55906;52.278;6.808;2023-06-04T09:01:31;5.90;;;2.70;;
68870;SDS011;55906;52.278;6.808;2023-06-04T09:03:59;4.88;;;2.65;;
68870;SDS011;55906;52.278;6.808;2023-06-04T09:06:28;3.88;;;2.33;;
68870;SDS011;55906;52.278;6.808;2023-06-04T09:08:57;5.60;;;2.70;;
68870;SDS011;55906;52.278;6.808;2023-06-04T09:11:26;4.95;;;2.47;;
68870;SDS011;55906;52.278;6.808;2023-06-04T09:13:58;4.10;;;2.17;;
68870;SDS011;55906;52.278;6.808;2023-06-04T09:16:27;5.88;;;2.47;;
68870;SDS011;55906;52.278;6.808;2023-06-04T09:19:01;6.45;;;2.22;;
68870;SDS011;55906;52.278;6.808;2023-06-04T09:21:28;4.28;;;1.98;;
68870;SDS011;55906;52.278;6.808;2023-06-04T09:23:57;3.80;;;2.20;;
68870;SDS011;55906;52.278;6.808;2023-06-04T09:26:24;4.75;;;1.73;;
68870;SDS011;55906;52.278;6.808;2023-06-04T09:28:51;4.90;;;2.00;;
68870;SDS011;55906;52.278;6.808;2023-06-04T09:31:20;4.15;;;1.98;;
68870;SDS011;55906;52.278;6.808;2023-06-04T09:33:51;4.18;;;1.60;;
68870;SDS011;55906;52.278;6.808;2023-06-04T09:36:18;3.97;;;1.60;;
68870;SDS011;55906;52.278;6.808;2023-06-04T09:38:45;5.10;;;1.60;;
68870;SDS011;55906;52.278;6.808;2023-06-04T09:41:13;3.85;;;1.55;;
68870;SDS011;55906;52.278;6.808;2023-06-04T09:43:40;4.20;;;1.30;;
68870;SDS011;55906;52.278;6.808;2023-06-04T09:46:12;5.20;;;1.48;;
68870;SDS011;55906;52.278;6.808;2023-06-04T09:48:39;4.65;;;1.50;;
68870;SDS011;55906;52.278;6.808;2023-06-04T09:51:07;5.05;;;1.40;;
68870;SDS011;55906;52.278;6.808;2023-06-04T09:53:34;3.83;;;1.10;;
68870;SDS011;55906;52.278;6.808;2023-06-04T09:56:01;5.03;;;1.33;;
68870;SDS011;55906;52.278;6.808;2023-06-04T09:58:31;3.67;;;1.30;;
68870;SDS011;55906;52.278;6.808;2023-06-04T10:00:58;4.60;;;1.30;;
68870;SDS011;55906;52.278;6.808;2023-06-04T10:03:28;3.22;;;1.17;;
68870;SDS011;55906;52.278;6.808;2023-06-04T10:05:58;3.40;;;0.98;;
68870;SDS011;55906;52.278;6.808;2023-06-04T10:08:26;3.83;;;1.07;;
68870;SDS011;55906;52.278;6.808;2023-06-04T10:10:54;3.33;;;1.20;;
68870;SDS011;55906;52.278;6.808;2023-06-04T10:13:23;3.22;;;1.02;;
68870;SDS011;55906;52.278;6.808;2023-06-04T10:15:54;3.40;;;1.13;;
68870;SDS011;55906;52.278;6.808;2023-06-04T10:18:23;3.35;;;1.20;;
68870;SDS011;55906;52.278;6.808;2023-06-04T10:20:52;4.00;;;1.00;;
68870;SDS011;55906;52.278;6.808;2023-06-04T10:23:20;4.15;;;1.27;;
68870;SDS011;55906;52.278;6.808;2023-06-04T10:25:48;3.85;;;1.20;;
68870;SDS011;55906;52.278;6.808;2023-06-04T10:28:15;2.85;;;0.90;;
68870;SDS011;55906;52.278;6.808;2023-06-04T10:30:44;4.22;;;1.10;;
68870;SDS011;55906;52.278;6.808;2023-06-04T10:33:12;3.00;;;1.03;;
68870;SDS011;55906;52.278;6.808;2023-06-04T10:35:42;3.30;;;1.13;;
68870;SDS011;55906;52.278;6.808;2023-06-04T10:38:09;4.10;;;1.10;;
68870;SDS011;55906;52.278;6.808;2023-06-04T10:40:38;3.70;;;1.05;;
68870;SDS011;55906;52.278;6.808;2023-06-04T10:43:05;2.90;;;1.20;;
68870;SDS011;55906;52.278;6.808;2023-06-04T10:45:32;3.60;;;1.10;;
68870;SDS011;55906;52.278;6.808;2023-06-04T10:48:00;3.35;;;1.05;;
68870;SDS011;55906;52.278;6.808;2023-06-04T10:50:28;3.75;;;1.10;;
68870;SDS011;55906;52.278;6.808;2023-06-04T10:52:55;4.22;;;1.00;;
68870;SDS011;55906;52.278;6.808;2023-06-04T10:55:23;4.00;;;1.10;;
68870;SDS011;55906;52.278;6.808;2023-06-04T10:57:51;3.93;;;1.03;;
68870;SDS011;55906;52.278;6.808;2023-06-04T11:00:18;3.50;;;1.10;;
68870;SDS011;55906;52.278;6.808;2023-06-04T11:02:52;3.72;;;1.00;;
68870;SDS011;55906;52.278;6.808;2023-06-04T11:05:20;3.38;;;0.93;;
68870;SDS011;55906;52.278;6.808;2023-06-04T11:07:49;3.40;;;1.00;;
68870;SDS011;55906;52.278;6.808;2023-06-04T11:10:16;4.90;;;1.20;;
68870;SDS011;55906;52.278;6.808;2023-06-04T11:12:44;4.72;;;0.98;;
68870;SDS011;55906;52.278;6.808;2023-06-04T11:15:12;3.00;;;0.90;;
68870;SDS011;55906;52.278;6.808;2023-06-04T11:17:48;3.22;;;0.90;;
68870;SDS011;55906;52.278;6.808;2023-06-04T11:20:16;3.80;;;1.10;;
68870;SDS011;55906;52.278;6.808;2023-06-04T11:22:50;2.70;;;0.80;;
68870;SDS011;55906;52.278;6.808;2023-06-04T11:25:18;3.53;;;0.90;;
68870;SDS011;55906;52.278;6.808;2023-06-04T11:27:47;5.65;;;1.20;;
68870;SDS011;55906;52.278;6.808;2023-06-04T11:30:14;4.22;;;1.25;;
68870;SDS011;55906;52.278;6.808;2023-06-04T11:32:41;4.55;;;0.90;;
68870;SDS011;55906;52.278;6.808;2023-06-04T11:35:08;3.37;;;0.90;;
68870;SDS011;55906;52.278;6.808;2023-06-04T11:37:36;3.88;;;0.80;;
68870;SDS011;55906;52.278;6.808;2023-06-04T11:40:14;3.20;;;0.80;;
68870;SDS011;55906;52.278;6.808;2023-06-04T11:42:42;4.32;;;1.00;;
68870;SDS011;55906;52.278;6.808;2023-06-04T11:45:10;4.57;;;1.08;;
68870;SDS011;55906;52.278;6.808;2023-06-04T11:47:36;4.80;;;1.00;;
68870;SDS011;55906;52.278;6.808;2023-06-04T11:50:04;4.00;;;0.95;;
68870;SDS011;55906;52.278;6.808;2023-06-04T11:52:31;3.17;;;1.10;;
68870;SDS011;55906;52.278;6.808;2023-06-04T11:54:59;4.53;;;1.05;;
68870;SDS011;55906;52.278;6.808;2023-06-04T11:57:27;3.42;;;0.90;;
68870;SDS011;55906;52.278;6.808;2023-06-04T11:59:55;2.97;;;1.00;;
68870;SDS011;55906;52.278;6.808;2023-06-04T12:02:22;2.83;;;0.85;;
68870;SDS011;55906;52.278;6.808;2023-06-04T12:04:49;3.90;;;1.00;;
68870;SDS011;55906;52.278;6.808;2023-06-04T12:07:19;4.90;;;1.00;;
68870;SDS011;55906;52.278;6.808;2023-06-04T12:09:49;3.72;;;0.98;;
68870;SDS011;55906;52.278;6.808;2023-06-04T12:12:21;4.90;;;0.97;;
68870;SDS011;55906;52.278;6.808;2023-06-04T12:14:49;2.70;;;0.70;;
68870;SDS011;55906;52.278;6.808;2023-06-04T12:17:22;3.33;;;0.90;;
68870;SDS011;55906;52.278;6.808;2023-06-04T12:19:50;2.72;;;0.90;;
68870;SDS011;55906;52.278;6.808;2023-06-04T12:22:17;4.15;;;0.90;;
68870;SDS011;55906;52.278;6.808;2023-06-04T12:24:48;3.60;;;0.97;;
68870;SDS011;55906;52.278;6.808;2023-06-04T12:27:18;2.90;;;0.90;;
68870;SDS011;55906;52.278;6.808;2023-06-04T12:29:55;3.17;;;1.05;;
68870;SDS011;55906;52.278;6.808;2023-06-04T12:32:23;2.70;;;0.75;;
68870;SDS011;55906;52.278;6.808;2023-06-04T12:34:50;3.10;;;0.80;;
68870;SDS011;55906;52.278;6.808;2023-06-04T12:37:16;2.93;;;0.90;;
68870;SDS011;55906;52.278;6.808;2023-06-04T12:39:43;3.55;;;0.98;;
68870;SDS011;55906;52.278;6.808;2023-06-04T12:42:10;3.15;;;0.82;;
68870;SDS011;55906;52.278;6.808;2023-06-04T12:44:37;3.40;;;0.80;;
68870;SDS011;55906;52.278;6.808;2023-06-04T12:47:07;3.05;;;0.88;;
68870;SDS011;55906;52.278;6.808;2023-06-04T12:49:33;3.20;;;0.83;;
68870;SDS011;55906;52.278;6.808;2023-06-04T12:52:00;3.65;;;0.93;;
68870;SDS011;55906;52.278;6.808;2023-06-04T12:54:27;2.85;;;0.80;;
68870;SDS011;55906;52.278;6.808;2023-06-04T12:56:54;2.72;;;0.80;;
68870;SDS011;55906;52.278;6.808;2023-06-04T12:59:21;3.72;;;0.80;;
68870;SDS011;55906;52.278;6.808;2023-06-04T13:01:48;4.13;;;0.77;;
68870;SDS011;55906;52.278;6.808;2023-06-04T13:04:16;3.88;;;0.90;;
68870;SDS011;55906;52.278;6.808;2023-06-04T13:06:43;3.80;;;0.80;;
68870;SDS011;55906;52.278;6.808;2023-06-04T13:09:11;2.70;;;0.80;;
68870;SDS011;55906;52.278;6.808;2023-06-04T13:11:40;4.15;;;0.80;;
68870;SDS011;55906;52.278;6.808;2023-06-04T13:14:07;3.90;;;0.83;;
68870;SDS011;55906;52.278;6.808;2023-06-04T13:16:35;2.70;;;0.70;;
68870;SDS011;55906;52.278;6.808;2023-06-04T13:19:02;3.53;;;0.77;;
68870;SDS011;55906;52.278;6.808;2023-06-04T13:21:30;3.05;;;0.80;;
68870;SDS011;55906;52.278;6.808;2023-06-04T13:23:57;2.60;;;0.70;;
68870;SDS011;55906;52.278;6.808;2023-06-04T13:26:24;4.27;;;0.90;;
68870;SDS011;55906;52.278;6.808;2023-06-04T13:28:51;2.72;;;0.70;;
68870;SDS011;55906;52.278;6.808;2023-06-04T13:31:18;2.90;;;0.70;;
68870;SDS011;55906;52.278;6.808;2023-06-04T13:33:44;3.45;;;1.00;;
68870;SDS011;55906;52.278;6.808;2023-06-04T13:36:11;3.03;;;0.60;;
68870;SDS011;55906;52.278;6.808;2023-06-04T13:38:39;2.70;;;0.70;;
68870;SDS011;55906;52.278;6.808;2023-06-04T13:41:08;3.20;;;0.90;;
68870;SDS011;55906;52.278;6.808;2023-06-04T13:43:34;4.85;;;0.80;;
68870;SDS011;55906;52.278;6.808;2023-06-04T13:46:01;2.75;;;0.70;;
68870;SDS011;55906;52.278;6.808;2023-06-04T13:48:28;2.83;;;0.88;;
68870;SDS011;55906;52.278;6.808;2023-06-04T13:50:54;3.17;;;0.80;;
68870;SDS011;55906;52.278;6.808;2023-06-04T13:53:21;2.97;;;0.73;;
68870;SDS011;55906;52.278;6.808;2023-06-04T13:55:49;2.33;;;0.60;;
68870;SDS011;55906;52.278;6.808;2023-06-04T13:58:22;2.90;;;0.77;;
68870;SDS011;55906;52.278;6.808;2023-06-04T14:00:49;3.22;;;0.70;;
68870;SDS011;55906;52.278;6.808;2023-06-04T14:03:16;6.30;;;0.93;;
68870;SDS011;55906;52.278;6.808;2023-06-04T14:05:42;2.65;;;0.68;;
68870;SDS011;55906;52.278;6.808;2023-06-04T14:08:09;3.17;;;0.70;;
68870;SDS011;55906;52.278;6.808;2023-06-04T14:10:37;2.92;;;0.60;;
68870;SDS011;55906;52.278;6.808;2023-06-04T14:13:07;2.80;;;0.70;;
68870;SDS011;55906;52.278;6.808;2023-06-04T14:15:34;2.63;;;0.70;;
68870;SDS011;55906;52.278;6.808;2023-06-04T14:18:01;3.72;;;0.80;;
68870;SDS011;55906;52.278;6.808;2023-06-04T14:20:28;2.70;;;0.70;;
68870;SDS011;55906;52.278;6.808;2023-06-04T14:22:55;2.83;;;0.68;;
68870;SDS011;55906;52.278;6.808;2023-06-04T14:25:21;3.22;;;0.90;;
68870;SDS011;55906;52.278;6.808;2023-06-04T14:27:48;3.73;;;0.90;;
68870;SDS011;55906;52.278;6.808;2023-06-04T14:30:16;3.10;;;0.63;;
68870;SDS011;55906;52.278;6.808;2023-06-04T14:32:43;3.22;;;0.90;;
68870;SDS011;55906;52.278;6.808;2023-06-04T14:35:09;2.65;;;0.73;;
68870;SDS011;55906;52.278;6.808;2023-06-04T14:37:37;2.97;;;0.77;;
68870;SDS011;55906;52.278;6.808;2023-06-04T14:40:04;2.77;;;0.70;;
68870;SDS011;55906;52.278;6.808;2023-06-04T14:42:32;2.70;;;0.80;;
68870;SDS011;55906;52.278;6.808;2023-06-04T14:44:58;2.80;;;0.80;;
68870;SDS011;55906;52.278;6.808;2023-06-04T14:47:26;3.90;;;0.70;;
68870;SDS011;55906;52.278;6.808;2023-06-04T14:49:53;2.75;;;0.70;;